Benton, AR (72019)

3:56 PM CDT on September 24, 2016 (GMT -0500)
Downtown / First Baptist | | Change Station

Elev 433 ft 34.56 °N, 92.59 °W | Updated 2 seconds ago

Partly Cloudy
Partly Cloudy
92.8 °F
Feels Like 100 °F
N
4.0
Wind Variable Wind from SW
Gusts 9.0 mph

Today
High -- | Low -- °F
--% Chance of Precip.
Yesterday
High -- | Low -- °F
Precip. -- in
Pressure 30.00 in
Visibility 10.0 miles
Clouds Few 5000 ft
Few 8000 ft
Heat Index 100 °F
Dew Point 71 °F
Humidity 49%
Rainfall 0.00 in
Snow Depth Not available.
7:00 AM 7:03 PM
Waning Crescent, 34% visible
METAR KLIT 242053Z 17006KT 10SM FEW050 FEW080 34/19 A3000 RMK AO2 SLP158 FU VSB DSNT NE-E TCU DSNT W T03390189 56023
Pressure 30.00 in
Visibility 10.0 miles
Clouds Few 5000 ft
Few 8000 ft
Heat Index 100 °F
Dew Point 71 °F
Humidity 49%
Rainfall 0.00 in
Snow Depth Not available.
7:00 AM 7:03 PM
Waning Crescent, 34% visible
METAR KLIT 242053Z 17006KT 10SM FEW050 FEW080 34/19 A3000 RMK AO2 SLP158 FU VSB DSNT NE-E TCU DSNT W T03390189 56023

10-Day Weather Forecast

Almanac

Astronomy

Sep. 24, 2016 Rise Set
Actual Time
Civil Twilight
Nautical Twilight
Astronomical Twilight
Moon
Length of Visible Light
Length of Day
Tomorrow will be .
, % of the Moon is Illuminated

Today's Extremes

State Highs State Lows

Community

WunderPhotos

Upload Photos

1,941,423 photos uploaded!

WunderBlog® & News

Nearby

Air Quality

  Air Quality AQ Index Pollutant
Not available.

Snow Depth

Station Depth Elevation

Earthquake Activity

City Distance Mag. Time & Date
Minimum magnitude displayed is 2.5.

Coastal Water Temperatures

Place Temperature

Stations

Nearby Weather Stations

Station Location Temp. Windchill Dew Point Humidity Wind Precip. Elev Updated Type
                   

Watches & Warnings

There are currently no watches in effect.